Spokane/Fairchild AFB, Washington
Current Conditions -  °F | °C
As of 1:39 AM on Tuesday 21 Oct 2014 (Local Time) from KSKA Reporting Station
Overcast Overcast  
Wind Chill: 44°   Ceiling: 1000
Heat Index: 48°   Visibility: 10mi
Dew Point: 46°   Wind: 10mph
Humidity: 93%   Direction: 200°SSW
Pressure: 29.86"   Gusts: NA
Location:  47.62°N, 117.65°W
Report Text: KSKA 210839Z AUTO 20009KT 10SM BKN010 OVC100 09/08 A2986 RMK AO2
Loading
Personal Weather Stations






























Interactive Weather Map
Tropical Storm Tracking
New forecast layout! Learn more

10-Day Weather Forecast

Advertisements
Track Severe Weather on mobile